Airfield :
LOGIN :

Register | Disclaimer

   EN    FR    IT 

 










Legend :    VFR   Marginal VFR   IFR   Intensive IFR   Very Intensive IFR
Visi :
Ceiling :
>= 8 km
>= 3000ft
5 to 8 km
1000 to 3000 ft
1500m to 5 km
500 to 1000 ft
800 to 1500m
200 to 500 ft
< 800m
< 200 ft
Symbols :   Thunderstorms  Fog  Heavy snow  Heavy precipitations  Wind > 20 kt
SIGMETs :     Misc.  Thunderstorms  Icing  Turbulence  Mountain Waves  Volcanic Ashes







- Airport Elevation : 1521 ft
- IATA code : NCY
- Download approach charts


LFLP - Annecy

CURRENT METAR :
  • 240000Z AUTO VRB02KT 9999 FEW076 04/01 Q1018

EXPIRED METARs :
  • 232330Z AUTO VRB02KT CAVOK 05/02 Q1018
  • 232300Z AUTO VRB02KT 9999 FEW076 BKN100 05/03 Q1019
  • 232230Z AUTO VRB02KT 9999 SCT074 OVC088 07/03 Q1019
  • 232200Z AUTO VRB02KT 9999 BKN076 OVC098 06/03 Q1019
  • 232130Z AUTO VRB02KT CAVOK 06/03 Q1019

TAF TAF LFLP
Valid from the 23 at 15:00 until the 24 at 15:00 UTC


231400Z 2315/2415 22010KT CAVOK
BECMG 2319/2321 VRB02KT
BECMG 2410/2412 22012KT
No reported NOTAMs for that airfield.



MET'MAP, your aeronautical weather chart ! - Copyright ORBIFLY December 2007 - Disclaimer

ORBIFLY MET'MAP TEAM :

Programming & Development : Alexandra Zaïnal
Concept & Development : Baudouin d'Aumeries
Co-Development & Prog : Marc-Olivier Méhu
Technical & hardware support : Manuel Goepfert

Contact : metmap@orbifly.com




SOURCES & CREDITS :

   NOAA